Rowland, North Carolina
Current Conditions -  °F | °C
As of 9:54 PM on Saturday 20 Dec 2014 (Local Time) from KLBT Reporting Station
Haze Haze  
Wind Chill: 38°   Ceiling: 6500
Heat Index: 41°   Visibility: 5mi
Dew Point: 38°   Wind: 5mph
Humidity: 89%   Direction: 50°NE
Pressure: 30.27"   Gusts: NA
Location:  34.54°N, 79.29°W
Report Text: KLBT 210254Z AUTO 05004KT 5SM BR FEW008 OVC065 05/03 A3027 RMK AO2 SLP251 T00500033 53001
Loading
Personal Weather Stations






























Interactive Weather Map New forecast layout! Learn more

10-Day Weather Forecast

Advertisements
Track Severe Weather on mobile